sensor_id;sensor_type;location;lat;lon;timestamp;temperature;humidity
30379;DHT22;17168;49.164;9.060;2024-03-29T00:00:26;12.50;60.00
30379;DHT22;17168;49.164;9.060;2024-03-29T00:02:57;12.60;59.90
30379;DHT22;17168;49.164;9.060;2024-03-29T00:05:28;12.60;60.00
30379;DHT22;17168;49.164;9.060;2024-03-29T00:07:59;12.60;59.80
30379;DHT22;17168;49.164;9.060;2024-03-29T00:10:31;12.60;59.50
30379;DHT22;17168;49.164;9.060;2024-03-29T00:13:04;12.40;59.00
30379;DHT22;17168;49.164;9.060;2024-03-29T00:15:35;12.10;59.10
30379;DHT22;17168;49.164;9.060;2024-03-29T00:18:07;11.80;59.40
30379;DHT22;17168;49.164;9.060;2024-03-29T00:20:38;11.50;59.70
30379;DHT22;17168;49.164;9.060;2024-03-29T00:23:09;11.20;60.00
30379;DHT22;17168;49.164;9.060;2024-03-29T00:25:40;10.90;60.40
30379;DHT22;17168;49.164;9.060;2024-03-29T00:28:14;10.70;60.70
30379;DHT22;17168;49.164;9.060;2024-03-29T00:30:45;10.50;61.20
30379;DHT22;17168;49.164;9.060;2024-03-29T00:33:16;10.30;61.70
30379;DHT22;17168;49.164;9.060;2024-03-29T00:35:47;10.10;62.20
30379;DHT22;17168;49.164;9.060;2024-03-29T00:38:18;10.00;62.50
30379;DHT22;17168;49.164;9.060;2024-03-29T00:40:49;9.80;62.80
30379;DHT22;17168;49.164;9.060;2024-03-29T00:43:22;9.70;63.10
30379;DHT22;17168;49.164;9.060;2024-03-29T00:45:53;9.60;63.50
30379;DHT22;17168;49.164;9.060;2024-03-29T00:48:24;9.50;63.80
30379;DHT22;17168;49.164;9.060;2024-03-29T00:50:56;9.40;64.10
30379;DHT22;17168;49.164;9.060;2024-03-29T00:53:27;9.40;64.40
30379;DHT22;17168;49.164;9.060;2024-03-29T00:55:58;9.30;64.70
30379;DHT22;17168;49.164;9.060;2024-03-29T00:58:31;9.30;64.80
30379;DHT22;17168;49.164;9.060;2024-03-29T01:01:03;9.30;65.00
30379;DHT22;17168;49.164;9.060;2024-03-29T01:03:34;9.20;65.10
30379;DHT22;17168;49.164;9.060;2024-03-29T01:06:05;9.20;65.30
30379;DHT22;17168;49.164;9.060;2024-03-29T01:08:36;9.20;65.50
30379;DHT22;17168;49.164;9.060;2024-03-29T01:11:07;9.20;65.70
30379;DHT22;17168;49.164;9.060;2024-03-29T01:13:41;9.20;65.80
30379;DHT22;17168;49.164;9.060;2024-03-29T01:16:12;9.20;65.90
30379;DHT22;17168;49.164;9.060;2024-03-29T01:18:43;9.20;66.00
30379;DHT22;17168;49.164;9.060;2024-03-29T01:21:15;9.10;66.00
30379;DHT22;17168;49.164;9.060;2024-03-29T01:23:46;9.20;66.00
30379;DHT22;17168;49.164;9.060;2024-03-29T01:26:17;9.20;66.40
30379;DHT22;17168;49.164;9.060;2024-03-29T01:28:51;9.10;66.20
30379;DHT22;17168;49.164;9.060;2024-03-29T01:31:22;9.20;66.40
30379;DHT22;17168;49.164;9.060;2024-03-29T01:33:53;9.10;66.40
30379;DHT22;17168;49.164;9.060;2024-03-29T01:36:28;9.10;66.60
30379;DHT22;17168;49.164;9.060;2024-03-29T01:38:59;9.10;66.40
30379;DHT22;17168;49.164;9.060;2024-03-29T01:41:31;9.10;66.40
30379;DHT22;17168;49.164;9.060;2024-03-29T01:44:05;9.20;66.60
30379;DHT22;17168;49.164;9.060;2024-03-29T01:46:37;9.20;66.80
30379;DHT22;17168;49.164;9.060;2024-03-29T01:49:08;9.20;66.80
30379;DHT22;17168;49.164;9.060;2024-03-29T01:51:40;9.20;66.90
30379;DHT22;17168;49.164;9.060;2024-03-29T01:54:12;9.20;67.00
30379;DHT22;17168;49.164;9.060;2024-03-29T01:56:43;9.20;67.20
30379;DHT22;17168;49.164;9.060;2024-03-29T01:59:17;9.30;67.30
30379;DHT22;17168;49.164;9.060;2024-03-29T02:01:49;9.30;67.10
30379;DHT22;17168;49.164;9.060;2024-03-29T02:04:21;9.30;66.80
30379;DHT22;17168;49.164;9.060;2024-03-29T02:06:52;9.30;66.80
30379;DHT22;17168;49.164;9.060;2024-03-29T02:09:23;9.30;66.70
30379;DHT22;17168;49.164;9.060;2024-03-29T02:11:54;9.30;66.60
30379;DHT22;17168;49.164;9.060;2024-03-29T02:14:28;9.40;66.70
30379;DHT22;17168;49.164;9.060;2024-03-29T02:16:59;9.40;66.90
30379;DHT22;17168;49.164;9.060;2024-03-29T02:19:30;9.40;66.70
30379;DHT22;17168;49.164;9.060;2024-03-29T02:22:04;9.40;66.60
30379;DHT22;17168;49.164;9.060;2024-03-29T02:24:39;9.40;66.80
30379;DHT22;17168;49.164;9.060;2024-03-29T02:27:10;9.50;66.80
30379;DHT22;17168;49.164;9.060;2024-03-29T02:29:41;9.50;66.60
30379;DHT22;17168;49.164;9.060;2024-03-29T02:32:12;9.50;66.30
30379;DHT22;17168;49.164;9.060;2024-03-29T02:34:43;9.50;66.40
30379;DHT22;17168;49.164;9.060;2024-03-29T02:37:15;9.50;66.50
30379;DHT22;17168;49.164;9.060;2024-03-29T02:39:49;9.60;66.40
30379;DHT22;17168;49.164;9.060;2024-03-29T02:42:20;9.60;66.40
30379;DHT22;17168;49.164;9.060;2024-03-29T02:44:51;9.60;66.50
30379;DHT22;17168;49.164;9.060;2024-03-29T02:47:22;9.70;66.80
30379;DHT22;17168;49.164;9.060;2024-03-29T02:49:53;9.70;66.80
30379;DHT22;17168;49.164;9.060;2024-03-29T02:52:24;9.70;66.80
30379;DHT22;17168;49.164;9.060;2024-03-29T02:54:58;9.70;66.70
30379;DHT22;17168;49.164;9.060;2024-03-29T02:57:29;9.70;66.80
30379;DHT22;17168;49.164;9.060;2024-03-29T03:00:00;9.70;66.80
30379;DHT22;17168;49.164;9.060;2024-03-29T03:02:31;9.70;66.70
30379;DHT22;17168;49.164;9.060;2024-03-29T03:05:02;9.80;66.90
30379;DHT22;17168;49.164;9.060;2024-03-29T03:07:34;9.80;66.90
30379;DHT22;17168;49.164;9.060;2024-03-29T03:10:26;9.80;66.90
30379;DHT22;17168;49.164;9.060;2024-03-29T03:13:16;9.80;66.90
30379;DHT22;17168;49.164;9.060;2024-03-29T03:15:47;9.80;67.00
30379;DHT22;17168;49.164;9.060;2024-03-29T03:18:18;9.80;67.10
30379;DHT22;17168;49.164;9.060;2024-03-29T03:20:53;9.80;67.50
30379;DHT22;17168;49.164;9.060;2024-03-29T03:23:24;9.90;67.90
30379;DHT22;17168;49.164;9.060;2024-03-29T03:25:59;9.90;68.00
30379;DHT22;17168;49.164;9.060;2024-03-29T03:28:30;9.80;67.80
30379;DHT22;17168;49.164;9.060;2024-03-29T03:31:01;9.80;67.60
30379;DHT22;17168;49.164;9.060;2024-03-29T03:33:32;9.80;67.40
30379;DHT22;17168;49.164;9.060;2024-03-29T03:36:04;9.80;67.30
30379;DHT22;17168;49.164;9.060;2024-03-29T03:38:35;9.90;67.50
30379;DHT22;17168;49.164;9.060;2024-03-29T03:41:11;9.90;67.70
30379;DHT22;17168;49.164;9.060;2024-03-29T03:43:42;9.90;68.00
30379;DHT22;17168;49.164;9.060;2024-03-29T03:46:13;9.90;67.60
30379;DHT22;17168;49.164;9.060;2024-03-29T03:48:44;9.90;67.90
30379;DHT22;17168;49.164;9.060;2024-03-29T03:51:15;9.80;66.60
30379;DHT22;17168;49.164;9.060;2024-03-29T03:53:46;9.90;66.30
30379;DHT22;17168;49.164;9.060;2024-03-29T03:56:20;9.90;67.00
30379;DHT22;17168;49.164;9.060;2024-03-29T03:58:51;10.00;66.90
30379;DHT22;17168;49.164;9.060;2024-03-29T04:01:22;10.10;67.20
30379;DHT22;17168;49.164;9.060;2024-03-29T04:03:53;10.10;67.10
30379;DHT22;17168;49.164;9.060;2024-03-29T04:06:24;10.10;67.10
30379;DHT22;17168;49.164;9.060;2024-03-29T04:08:55;10.20;67.00
30379;DHT22;17168;49.164;9.060;2024-03-29T04:11:29;10.20;66.90
30379;DHT22;17168;49.164;9.060;2024-03-29T04:14:00;10.20;67.00
30379;DHT22;17168;49.164;9.060;2024-03-29T04:16:31;10.30;67.20
30379;DHT22;17168;49.164;9.060;2024-03-29T04:19:02;10.30;66.80
30379;DHT22;17168;49.164;9.060;2024-03-29T04:21:33;10.30;66.60
30379;DHT22;17168;49.164;9.060;2024-03-29T04:24:04;10.30;66.40
30379;DHT22;17168;49.164;9.060;2024-03-29T04:26:41;10.40;66.60
30379;DHT22;17168;49.164;9.060;2024-03-29T04:29:13;10.40;67.00
30379;DHT22;17168;49.164;9.060;2024-03-29T04:31:45;10.40;67.20
30379;DHT22;17168;49.164;9.060;2024-03-29T04:34:16;10.40;67.20
30379;DHT22;17168;49.164;9.060;2024-03-29T04:36:47;10.40;66.90
30379;DHT22;17168;49.164;9.060;2024-03-29T04:39:18;10.40;67.10
30379;DHT22;17168;49.164;9.060;2024-03-29T04:41:52;10.40;67.00
30379;DHT22;17168;49.164;9.060;2024-03-29T04:44:24;10.40;67.50
30379;DHT22;17168;49.164;9.060;2024-03-29T04:46:55;10.40;67.90
30379;DHT22;17168;49.164;9.060;2024-03-29T04:49:26;10.40;68.40
30379;DHT22;17168;49.164;9.060;2024-03-29T04:52:07;10.40;69.00
30379;DHT22;17168;49.164;9.060;2024-03-29T04:54:38;10.40;69.50
30379;DHT22;17168;49.164;9.060;2024-03-29T04:57:12;10.40;70.20
30379;DHT22;17168;49.164;9.060;2024-03-29T04:59:43;10.30;70.00
30379;DHT22;17168;49.164;9.060;2024-03-29T05:02:15;10.30;70.40
30379;DHT22;17168;49.164;9.060;2024-03-29T05:04:46;10.30;70.40
30379;DHT22;17168;49.164;9.060;2024-03-29T05:07:17;10.20;70.30
30379;DHT22;17168;49.164;9.060;2024-03-29T05:09:48;10.20;70.00
30379;DHT22;17168;49.164;9.060;2024-03-29T05:12:22;10.20;69.80
30379;DHT22;17168;49.164;9.060;2024-03-29T05:14:53;10.20;69.20
30379;DHT22;17168;49.164;9.060;2024-03-29T05:17:24;10.20;69.60
30379;DHT22;17168;49.164;9.060;2024-03-29T05:19:58;10.20;70.40
30379;DHT22;17168;49.164;9.060;2024-03-29T05:22:29;10.20;70.70
30379;DHT22;17168;49.164;9.060;2024-03-29T05:25:00;10.20;70.90
30379;DHT22;17168;49.164;9.060;2024-03-29T05:27:34;10.20;70.40
30379;DHT22;17168;49.164;9.060;2024-03-29T05:30:06;10.20;70.40
30379;DHT22;17168;49.164;9.060;2024-03-29T05:32:38;10.20;70.70
30379;DHT22;17168;49.164;9.060;2024-03-29T05:35:09;10.30;71.10
30379;DHT22;17168;49.164;9.060;2024-03-29T05:37:40;10.20;71.30
30379;DHT22;17168;49.164;9.060;2024-03-29T05:40:11;10.30;71.00
30379;DHT22;17168;49.164;9.060;2024-03-29T05:42:45;10.20;70.30
30379;DHT22;17168;49.164;9.060;2024-03-29T05:45:23;10.20;70.00
30379;DHT22;17168;49.164;9.060;2024-03-29T05:47:57;10.30;69.10
30379;DHT22;17168;49.164;9.060;2024-03-29T05:50:29;10.20;68.50
30379;DHT22;17168;49.164;9.060;2024-03-29T05:53:00;10.30;67.90
30379;DHT22;17168;49.164;9.060;2024-03-29T05:55:32;10.30;67.10
30379;DHT22;17168;49.164;9.060;2024-03-29T05:58:06;10.30;67.50
30379;DHT22;17168;49.164;9.060;2024-03-29T06:00:37;10.40;67.10
30379;DHT22;17168;49.164;9.060;2024-03-29T06:03:08;10.40;67.00
30379;DHT22;17168;49.164;9.060;2024-03-29T06:05:39;10.40;67.10
30379;DHT22;17168;49.164;9.060;2024-03-29T06:08:10;10.50;67.50
30379;DHT22;17168;49.164;9.060;2024-03-29T06:10:41;10.50;67.80
30379;DHT22;17168;49.164;9.060;2024-03-29T06:13:16;10.50;67.70
30379;DHT22;17168;49.164;9.060;2024-03-29T06:16:06;10.50;67.60
30379;DHT22;17168;49.164;9.060;2024-03-29T06:18:55;10.50;67.60
30379;DHT22;17168;49.164;9.060;2024-03-29T06:21:27;10.50;68.20
30379;DHT22;17168;49.164;9.060;2024-03-29T06:23:58;10.50;68.30
30379;DHT22;17168;49.164;9.060;2024-03-29T06:26:29;10.50;68.50
30379;DHT22;17168;49.164;9.060;2024-03-29T06:29:03;10.50;68.50
30379;DHT22;17168;49.164;9.060;2024-03-29T06:31:34;10.50;68.40
30379;DHT22;17168;49.164;9.060;2024-03-29T06:34:05;10.60;68.40
30379;DHT22;17168;49.164;9.060;2024-03-29T06:36:36;10.60;67.40
30379;DHT22;17168;49.164;9.060;2024-03-29T06:39:08;10.60;67.20
30379;DHT22;17168;49.164;9.060;2024-03-29T06:41:39;10.60;67.00
30379;DHT22;17168;49.164;9.060;2024-03-29T06:44:13;10.70;66.00
30379;DHT22;17168;49.164;9.060;2024-03-29T06:46:45;10.70;65.90
30379;DHT22;17168;49.164;9.060;2024-03-29T06:49:16;10.70;65.80
30379;DHT22;17168;49.164;9.060;2024-03-29T06:51:48;10.80;65.90
30379;DHT22;17168;49.164;9.060;2024-03-29T06:54:18;10.90;65.70
30379;DHT22;17168;49.164;9.060;2024-03-29T06:56:53;10.90;65.90
30379;DHT22;17168;49.164;9.060;2024-03-29T06:59:26;10.90;64.70
30379;DHT22;17168;49.164;9.060;2024-03-29T07:01:58;11.00;64.40
30379;DHT22;17168;49.164;9.060;2024-03-29T07:04:29;11.10;64.30
30379;DHT22;17168;49.164;9.060;2024-03-29T07:07:00;11.10;64.10
30379;DHT22;17168;49.164;9.060;2024-03-29T07:09:31;11.20;64.20
30379;DHT22;17168;49.164;9.060;2024-03-29T07:12:03;11.30;64.50
30379;DHT22;17168;49.164;9.060;2024-03-29T07:14:37;11.30;63.90
30379;DHT22;17168;49.164;9.060;2024-03-29T07:17:08;11.40;63.50
30379;DHT22;17168;49.164;9.060;2024-03-29T07:19:39;11.40;63.20
30379;DHT22;17168;49.164;9.060;2024-03-29T07:22:10;11.50;63.30
30379;DHT22;17168;49.164;9.060;2024-03-29T07:24:41;11.60;63.20
30379;DHT22;17168;49.164;9.060;2024-03-29T07:27:12;11.60;63.50
30379;DHT22;17168;49.164;9.060;2024-03-29T07:29:48;11.60;62.90
30379;DHT22;17168;49.164;9.060;2024-03-29T07:32:19;11.70;63.30
30379;DHT22;17168;49.164;9.060;2024-03-29T07:34:50;11.70;63.00
30379;DHT22;17168;49.164;9.060;2024-03-29T07:37:21;11.70;62.60
30379;DHT22;17168;49.164;9.060;2024-03-29T07:39:52;11.70;61.40
30379;DHT22;17168;49.164;9.060;2024-03-29T07:42:23;11.80;62.60
30379;DHT22;17168;49.164;9.060;2024-03-29T07:44:57;11.80;63.00
30379;DHT22;17168;49.164;9.060;2024-03-29T07:47:28;11.80;63.40
30379;DHT22;17168;49.164;9.060;2024-03-29T07:49:59;11.80;63.20
30379;DHT22;17168;49.164;9.060;2024-03-29T07:52:30;11.80;62.60
30379;DHT22;17168;49.164;9.060;2024-03-29T07:55:01;11.80;62.70
30379;DHT22;17168;49.164;9.060;2024-03-29T07:57:32;11.90;62.80
30379;DHT22;17168;49.164;9.060;2024-03-29T08:00:07;11.90;62.40
30379;DHT22;17168;49.164;9.060;2024-03-29T08:02:41;11.90;62.60
30379;DHT22;17168;49.164;9.060;2024-03-29T08:05:12;11.90;62.70
30379;DHT22;17168;49.164;9.060;2024-03-29T08:07:43;11.80;63.80
30379;DHT22;17168;49.164;9.060;2024-03-29T08:10:14;11.80;64.60
30379;DHT22;17168;49.164;9.060;2024-03-29T08:12:45;11.70;65.30
30379;DHT22;17168;49.164;9.060;2024-03-29T08:15:19;11.60;66.20
30379;DHT22;17168;49.164;9.060;2024-03-29T08:17:51;11.60;66.90
30379;DHT22;17168;49.164;9.060;2024-03-29T08:20:22;11.60;67.40
30379;DHT22;17168;49.164;9.060;2024-03-29T08:23:00;11.60;67.90
30379;DHT22;17168;49.164;9.060;2024-03-29T08:25:31;11.60;68.50
30379;DHT22;17168;49.164;9.060;2024-03-29T08:28:02;11.50;68.70
30379;DHT22;17168;49.164;9.060;2024-03-29T08:30:36;11.50;69.40
30379;DHT22;17168;49.164;9.060;2024-03-29T08:33:07;11.40;70.30
30379;DHT22;17168;49.164;9.060;2024-03-29T08:35:38;11.30;70.70
30379;DHT22;17168;49.164;9.060;2024-03-29T08:38:14;11.20;71.60
30379;DHT22;17168;49.164;9.060;2024-03-29T08:40:45;11.20;72.50
30379;DHT22;17168;49.164;9.060;2024-03-29T08:43:19;11.10;72.90
30379;DHT22;17168;49.164;9.060;2024-03-29T08:45:53;11.00;73.60
30379;DHT22;17168;49.164;9.060;2024-03-29T08:48:30;10.90;74.20
30379;DHT22;17168;49.164;9.060;2024-03-29T08:51:01;10.80;74.70
30379;DHT22;17168;49.164;9.060;2024-03-29T08:53:34;10.70;75.80
30379;DHT22;17168;49.164;9.060;2024-03-29T08:56:06;10.70;76.60
30379;DHT22;17168;49.164;9.060;2024-03-29T08:58:37;10.60;77.10
30379;DHT22;17168;49.164;9.060;2024-03-29T09:01:12;10.60;78.00
30379;DHT22;17168;49.164;9.060;2024-03-29T09:03:45;10.50;79.00
30379;DHT22;17168;49.164;9.060;2024-03-29T09:06:16;10.50;80.00
30379;DHT22;17168;49.164;9.060;2024-03-29T09:08:47;10.40;81.20
30379;DHT22;17168;49.164;9.060;2024-03-29T09:11:18;10.40;82.10
30379;DHT22;17168;49.164;9.060;2024-03-29T09:13:49;10.40;83.00
30379;DHT22;17168;49.164;9.060;2024-03-29T09:16:23;10.30;84.10
30379;DHT22;17168;49.164;9.060;2024-03-29T09:18:54;10.30;85.50
30379;DHT22;17168;49.164;9.060;2024-03-29T09:21:28;10.30;87.40
30379;DHT22;17168;49.164;9.060;2024-03-29T09:23:59;10.30;89.40
30379;DHT22;17168;49.164;9.060;2024-03-29T09:26:30;10.30;90.60
30379;DHT22;17168;49.164;9.060;2024-03-29T09:29:01;10.40;91.60
30379;DHT22;17168;49.164;9.060;2024-03-29T09:31:35;10.40;93.00
30379;DHT22;17168;49.164;9.060;2024-03-29T09:34:06;10.50;94.40
30379;DHT22;17168;49.164;9.060;2024-03-29T09:36:37;10.60;96.00
30379;DHT22;17168;49.164;9.060;2024-03-29T09:39:08;10.70;98.00
30379;DHT22;17168;49.164;9.060;2024-03-29T09:41:40;10.70;99.50
30379;DHT22;17168;49.164;9.060;2024-03-29T09:44:15;10.80;99.90
30379;DHT22;17168;49.164;9.060;2024-03-29T09:46:51;10.80;99.90
30379;DHT22;17168;49.164;9.060;2024-03-29T09:49:24;10.90;99.90
30379;DHT22;17168;49.164;9.060;2024-03-29T09:51:56;10.90;99.90
30379;DHT22;17168;49.164;9.060;2024-03-29T09:54:28;11.00;99.90
30379;DHT22;17168;49.164;9.060;2024-03-29T09:56:59;11.10;99.90
30379;DHT22;17168;49.164;9.060;2024-03-29T09:59:31;11.20;99.90
30379;DHT22;17168;49.164;9.060;2024-03-29T10:02:12;11.20;99.90
30379;DHT22;17168;49.164;9.060;2024-03-29T10:04:46;11.30;99.90
30379;DHT22;17168;49.164;9.060;2024-03-29T10:07:19;11.40;99.90
30379;DHT22;17168;49.164;9.060;2024-03-29T10:09:51;11.50;99.90
30379;DHT22;17168;49.164;9.060;2024-03-29T10:12:23;11.60;99.90
30379;DHT22;17168;49.164;9.060;2024-03-29T10:14:55;11.70;99.90
30379;DHT22;17168;49.164;9.060;2024-03-29T10:17:38;11.90;99.90
30379;DHT22;17168;49.164;9.060;2024-03-29T10:20:14;12.00;99.90
30379;DHT22;17168;49.164;9.060;2024-03-29T10:22:49;12.10;99.90
30379;DHT22;17168;49.164;9.060;2024-03-29T10:25:23;12.20;99.90
30379;DHT22;17168;49.164;9.060;2024-03-29T10:27:54;12.40;99.90
30379;DHT22;17168;49.164;9.060;2024-03-29T10:30:26;12.40;99.90
30379;DHT22;17168;49.164;9.060;2024-03-29T10:33:00;12.50;99.90
30379;DHT22;17168;49.164;9.060;2024-03-29T10:35:32;12.60;99.90
30379;DHT22;17168;49.164;9.060;2024-03-29T10:38:03;12.70;99.90
30379;DHT22;17168;49.164;9.060;2024-03-29T10:40:35;12.80;99.90
30379;DHT22;17168;49.164;9.060;2024-03-29T10:43:08;12.90;99.90
30379;DHT22;17168;49.164;9.060;2024-03-29T10:45:43;12.90;99.90
30379;DHT22;17168;49.164;9.060;2024-03-29T10:48:17;13.00;99.90
30379;DHT22;17168;49.164;9.060;2024-03-29T10:50:50;13.00;99.90
30379;DHT22;17168;49.164;9.060;2024-03-29T10:53:23;13.00;99.90
30379;DHT22;17168;49.164;9.060;2024-03-29T10:55:56;13.10;99.90
30379;DHT22;17168;49.164;9.060;2024-03-29T10:58:30;13.10;99.90
30379;DHT22;17168;49.164;9.060;2024-03-29T11:01:03;13.20;99.90
30379;DHT22;17168;49.164;9.060;2024-03-29T11:03:43;13.40;99.90
30379;DHT22;17168;49.164;9.060;2024-03-29T11:06:15;13.60;99.90
30379;DHT22;17168;49.164;9.060;2024-03-29T11:08:46;13.90;99.90
30379;DHT22;17168;49.164;9.060;2024-03-29T11:11:18;14.10;99.90
30379;DHT22;17168;49.164;9.060;2024-03-29T11:14:01;14.40;99.90
30379;DHT22;17168;49.164;9.060;2024-03-29T11:16:33;14.60;99.90
30379;DHT22;17168;49.164;9.060;2024-03-29T11:19:07;14.80;99.90
30379;DHT22;17168;49.164;9.060;2024-03-29T11:21:38;14.90;99.90
30379;DHT22;17168;49.164;9.060;2024-03-29T11:26:42;15.10;99.90
30379;DHT22;17168;49.164;9.060;2024-03-29T11:29:19;15.20;99.90
30379;DHT22;17168;49.164;9.060;2024-03-29T11:31:56;15.20;99.90
30379;DHT22;17168;49.164;9.060;2024-03-29T11:34:33;15.20;99.90
30379;DHT22;17168;49.164;9.060;2024-03-29T11:37:07;15.20;99.90
30379;DHT22;17168;49.164;9.060;2024-03-29T11:39:40;15.20;99.90
30379;DHT22;17168;49.164;9.060;2024-03-29T11:42:11;15.20;99.90
30379;DHT22;17168;49.164;9.060;2024-03-29T11:44:42;15.20;99.90
30379;DHT22;17168;49.164;9.060;2024-03-29T11:47:16;15.20;99.90
30379;DHT22;17168;49.164;9.060;2024-03-29T11:49:59;15.20;99.90
30379;DHT22;17168;49.164;9.060;2024-03-29T11:52:30;15.20;99.90
30379;DHT22;17168;49.164;9.060;2024-03-29T11:55:01;15.20;99.90
30379;DHT22;17168;49.164;9.060;2024-03-29T11:57:32;15.20;99.90
30379;DHT22;17168;49.164;9.060;2024-03-29T12:00:05;15.10;99.90
30379;DHT22;17168;49.164;9.060;2024-03-29T12:02:36;15.00;99.80
30379;DHT22;17168;49.164;9.060;2024-03-29T12:05:11;15.00;99.60
30379;DHT22;17168;49.164;9.060;2024-03-29T12:07:42;15.00;99.70
30379;DHT22;17168;49.164;9.060;2024-03-29T12:10:13;14.90;99.80
30379;DHT22;17168;49.164;9.060;2024-03-29T12:12:44;14.90;99.90
30379;DHT22;17168;49.164;9.060;2024-03-29T12:15:15;14.80;99.50
30379;DHT22;17168;49.164;9.060;2024-03-29T12:17:53;14.80;99.20
30379;DHT22;17168;49.164;9.060;2024-03-29T12:20:29;14.70;99.10
30379;DHT22;17168;49.164;9.060;2024-03-29T12:23:01;14.60;99.10
30379;DHT22;17168;49.164;9.060;2024-03-29T12:25:35;14.50;99.50
30379;DHT22;17168;49.164;9.060;2024-03-29T12:28:06;14.50;99.70
30379;DHT22;17168;49.164;9.060;2024-03-29T12:30:40;14.40;99.50
30379;DHT22;17168;49.164;9.060;2024-03-29T12:33:13;14.30;99.20
30379;DHT22;17168;49.164;9.060;2024-03-29T12:35:51;14.30;99.40
30379;DHT22;17168;49.164;9.060;2024-03-29T12:38:25;14.20;99.80
30379;DHT22;17168;49.164;9.060;2024-03-29T12:40:56;14.20;99.90
30379;DHT22;17168;49.164;9.060;2024-03-29T12:43:28;14.10;99.70
30379;DHT22;17168;49.164;9.060;2024-03-29T12:46:01;14.10;99.70
30379;DHT22;17168;49.164;9.060;2024-03-29T12:48:35;14.00;99.90
30379;DHT22;17168;49.164;9.060;2024-03-29T12:51:09;14.00;99.90
30379;DHT22;17168;49.164;9.060;2024-03-29T12:53:42;14.00;99.90
30379;DHT22;17168;49.164;9.060;2024-03-29T12:56:13;13.90;99.90
30379;DHT22;17168;49.164;9.060;2024-03-29T12:58:44;14.00;99.90
30379;DHT22;17168;49.164;9.060;2024-03-29T13:01:15;14.00;99.90
30379;DHT22;17168;49.164;9.060;2024-03-29T13:03:47;14.00;99.90
30379;DHT22;17168;49.164;9.060;2024-03-29T13:06:21;14.10;99.90
30379;DHT22;17168;49.164;9.060;2024-03-29T13:08:52;14.10;99.90
30379;DHT22;17168;49.164;9.060;2024-03-29T13:11:24;14.10;99.90
30379;DHT22;17168;49.164;9.060;2024-03-29T13:13:56;14.10;99.90
30379;DHT22;17168;49.164;9.060;2024-03-29T13:16:27;14.10;99.90
30379;DHT22;17168;49.164;9.060;2024-03-29T13:18:58;14.10;99.90
30379;DHT22;17168;49.164;9.060;2024-03-29T13:21:32;14.10;99.90
30379;DHT22;17168;49.164;9.060;2024-03-29T13:24:04;14.10;99.90
30379;DHT22;17168;49.164;9.060;2024-03-29T13:26:35;14.10;99.90
30379;DHT22;17168;49.164;9.060;2024-03-29T13:29:06;14.10;99.90
30379;DHT22;17168;49.164;9.060;2024-03-29T13:31:37;14.20;99.90
30379;DHT22;17168;49.164;9.060;2024-03-29T13:34:08;14.20;99.90
30379;DHT22;17168;49.164;9.060;2024-03-29T13:36:45;14.20;99.90
30379;DHT22;17168;49.164;9.060;2024-03-29T13:39:16;14.30;99.90
30379;DHT22;17168;49.164;9.060;2024-03-29T13:41:48;14.30;99.90
30379;DHT22;17168;49.164;9.060;2024-03-29T13:44:19;14.30;99.90
30379;DHT22;17168;49.164;9.060;2024-03-29T13:46:50;14.30;99.90
30379;DHT22;17168;49.164;9.060;2024-03-29T13:49:23;14.30;99.90
30379;DHT22;17168;49.164;9.060;2024-03-29T13:51:56;14.40;99.90
30379;DHT22;17168;49.164;9.060;2024-03-29T13:54:27;14.50;99.90
30379;DHT22;17168;49.164;9.060;2024-03-29T13:56:58;14.50;99.90
30379;DHT22;17168;49.164;9.060;2024-03-29T13:59:29;14.60;99.90
30379;DHT22;17168;49.164;9.060;2024-03-29T14:02:01;14.70;99.90
30379;DHT22;17168;49.164;9.060;2024-03-29T14:04:32;14.80;99.90
30379;DHT22;17168;49.164;9.060;2024-03-29T14:07:06;15.00;99.90
30379;DHT22;17168;49.164;9.060;2024-03-29T14:09:41;15.10;99.90
30379;DHT22;17168;49.164;9.060;2024-03-29T14:12:13;15.30;99.90
30379;DHT22;17168;49.164;9.060;2024-03-29T14:14:44;15.40;99.90
30379;DHT22;17168;49.164;9.060;2024-03-29T14:17:19;15.60;99.90
30379;DHT22;17168;49.164;9.060;2024-03-29T14:19:50;15.80;99.90
30379;DHT22;17168;49.164;9.060;2024-03-29T14:22:24;15.90;99.90
30379;DHT22;17168;49.164;9.060;2024-03-29T14:24:56;15.90;99.90
30379;DHT22;17168;49.164;9.060;2024-03-29T14:27:27;15.90;99.90
30379;DHT22;17168;49.164;9.060;2024-03-29T14:29:58;15.80;99.90
30379;DHT22;17168;49.164;9.060;2024-03-29T14:32:29;15.80;99.90
30379;DHT22;17168;49.164;9.060;2024-03-29T14:35:00;15.80;99.90
30379;DHT22;17168;49.164;9.060;2024-03-29T14:37:34;15.80;99.90
30379;DHT22;17168;49.164;9.060;2024-03-29T14:40:07;15.80;99.90
30379;DHT22;17168;49.164;9.060;2024-03-29T14:42:39;15.80;99.90
30379;DHT22;17168;49.164;9.060;2024-03-29T14:45:10;15.70;99.90
30379;DHT22;17168;49.164;9.060;2024-03-29T14:47:44;15.70;99.90
30379;DHT22;17168;49.164;9.060;2024-03-29T14:50:15;15.60;99.90
30379;DHT22;17168;49.164;9.060;2024-03-29T14:52:49;15.60;99.90
30379;DHT22;17168;49.164;9.060;2024-03-29T14:55:20;15.70;99.90
30379;DHT22;17168;49.164;9.060;2024-03-29T14:57:51;15.70;99.90
30379;DHT22;17168;49.164;9.060;2024-03-29T15:00:23;15.70;99.90
30379;DHT22;17168;49.164;9.060;2024-03-29T15:02:55;15.80;99.90
30379;DHT22;17168;49.164;9.060;2024-03-29T15:05:26;15.80;99.90
30379;DHT22;17168;49.164;9.060;2024-03-29T15:08:00;15.90;99.90
30379;DHT22;17168;49.164;9.060;2024-03-29T15:10:31;15.90;99.90
30379;DHT22;17168;49.164;9.060;2024-03-29T15:13:03;15.90;99.90
30379;DHT22;17168;49.164;9.060;2024-03-29T15:15:34;15.90;99.90
30379;DHT22;17168;49.164;9.060;2024-03-29T15:18:07;15.90;99.90
30379;DHT22;17168;49.164;9.060;2024-03-29T15:20:38;16.00;99.90
30379;DHT22;17168;49.164;9.060;2024-03-29T15:23:12;16.00;99.90
30379;DHT22;17168;49.164;9.060;2024-03-29T15:25:43;16.00;99.90
30379;DHT22;17168;49.164;9.060;2024-03-29T15:28:16;15.90;99.90
30379;DHT22;17168;49.164;9.060;2024-03-29T15:30:47;15.90;99.90
30379;DHT22;17168;49.164;9.060;2024-03-29T15:33:25;15.90;99.90
30379;DHT22;17168;49.164;9.060;2024-03-29T15:35:56;15.90;99.90
30379;DHT22;17168;49.164;9.060;2024-03-29T15:38:29;16.00;99.90
30379;DHT22;17168;49.164;9.060;2024-03-29T15:41:02;16.00;99.90
30379;DHT22;17168;49.164;9.060;2024-03-29T15:43:35;16.10;99.90
30379;DHT22;17168;49.164;9.060;2024-03-29T15:46:07;16.10;99.30
30379;DHT22;17168;49.164;9.060;2024-03-29T15:48:42;16.10;99.70
30379;DHT22;17168;49.164;9.060;2024-03-29T15:51:13;16.10;99.90
30379;DHT22;17168;49.164;9.060;2024-03-29T15:53:50;16.10;99.90
30379;DHT22;17168;49.164;9.060;2024-03-29T15:56:23;16.10;99.90
30379;DHT22;17168;49.164;9.060;2024-03-29T15:58:54;16.10;99.50
30379;DHT22;17168;49.164;9.060;2024-03-29T16:01:27;16.10;99.90
30379;DHT22;17168;49.164;9.060;2024-03-29T16:03:58;16.10;99.90
30379;DHT22;17168;49.164;9.060;2024-03-29T16:06:29;16.10;99.80
30379;DHT22;17168;49.164;9.060;2024-03-29T16:09:05;16.00;99.90